Igor I Sikorsky Memorial Airport
KBDR : now visible

Airfield :











YOU CAN JOIN US ON...

 
LOGIN :

Register | Disclaimer

   EN    FR    IT 

 









Legend :    VFR   Marginal VFR   IFR   Intensive IFR   Very Intensive IFR
Visi :
Ceiling :
>= 8 km
>= 3000ft
5 to 8 km
1000 to 3000 ft
1500m to 5 km
500 to 1000 ft
800 to 1500m
200 to 500 ft
< 800m
< 200 ft
Symbols :   Thunderstorms  Fog  Heavy snow  Heavy precipitations  Wind > 20 kt






- Airport Elevation : 9 ft
- IATA code : BDR


KBDR - Igor I Sikorsky Memorial

CURRENT METAR :
  • 142022Z 19010KT 1SM BR VV003 12/12 A2922 RMK AO2 RAE1957 P0000 T01220117 $

EXPIRED METARs :
  • 141952Z 11007KT 1/4SM -RA FG VV003 10/10 A2923 RMK AO2 RAB44 SLP898 P0000 T01000100 /
  • 141920Z 07009KT 1/4SM FG VV004 11/11 A2923 RMK AO2 T01110106 $
  • 141905Z 08006KT 1/4SM FG VV005 11/10 A2926 RMK AO2 T01060100 $
  • 141852Z 09005KT 1/4SM FG 11/10 A2927 RMK AO2 RAB10E27 SLP911 P0001 T01060100 $
  • 141845Z 09005KT 1/4SM FG 10/09 A2927 RMK AO2 RAB10E27 P0001 T01000094 $
  • 141805Z 09003KT 1/4SM FG VV003 09/08 A2930 RMK AO2 T00890083 $
  • 141752Z 08005KT 3/4SM BR OVC004 11/10 A2930 RMK AO2 RAB15E16 SLP921 P0001 60013 T01060100 10106 20089 58051 $
  • 141744Z 06007KT 3/4SM BR VV004 10/09 A2931 RMK AO2 RAB15E16 P0001 T01000094 $

TAF KBDR
Valid from the 14 at 18:00 until the 15 at 18:00 UTC


141726Z 1418/1518 VRB05KT 1SM -RA BR OVC005
TEMPO 1418/1421 1/2SM FG OVC003
FM142100 17012KT 1SM BR OVC005
FM150000 23016G25KT P6SM BKN015 OVC025
FM150500 26017G27KT P6SM BKN035
FM151100 27018G30KT P6SM BKN045



MET'MAP, your aeronautical weather chart ! - Copyright ORBIFLY December 2007 - Disclaimer

ORBIFLY MET'MAP TEAM :

Programming & Development : Alexandra Zaïnal
Concept & original design : Baudouin d'Aumeries
Assistance for programming : Marc-Olivier Méhu
Technical & hardware support : Manuel Goepfert

Contact : metmap@orbifly.com




SOURCES & CREDITS :

   NOAA       Earth
Advisory